Time;durP1;ratioP1;P1;durP2;ratioP2;P2;SDS_P1;SDS_P2;PMS_P1;PMS_P2;Temp;Humidity;BMP_temperature;BMP_pressure;BME280_temperature;BME280_humidity;BME280_pressure;Samples;Min_cycle;Max_cycle;Signal;HPM_P1;HPM_P2
2024/02/29 00:00:06;;;;;;;8.63;5.75;;;;;;;10.54;49.49;94280.84;5032180;28;20035;-72
2024/02/29 00:02:32;;;;;;;15.05;7.53;;;;;;;10.54;49.26;94278.19;5032132;28;20017;-72
2024/02/29 00:04:57;;;;;;;11.48;6.20;;;;;;;10.60;49.14;94281.53;5031591;28;20033;-72
2024/02/29 00:07:22;;;;;;;10.20;6.15;;;;;;;10.61;49.05;94285.75;5031827;28;20048;-72
2024/02/29 00:09:48;;;;;;;8.77;5.00;;;;;;;10.59;49.23;94279.94;5032019;28;20041;-73
2024/02/29 00:12:13;;;;;;;10.55;5.28;;;;;;;10.10;49.44;94228.38;5031438;28;20493;-72
2024/02/29 00:14:39;;;;;;;7.90;5.63;;;;;;;10.44;49.60;94267.00;5032805;28;20032;-72
2024/02/29 00:17:05;;;;;;;8.18;5.65;;;;;;;10.48;49.55;94278.59;5031108;28;20057;-72
2024/02/29 00:19:31;;;;;;;13.63;6.07;;;;;;;10.35;49.52;94279.41;5031497;28;20043;-72
2024/02/29 00:21:57;;;;;;;11.15;5.95;;;;;;;10.45;49.69;94279.19;5031598;28;20041;-72
2024/02/29 00:24:22;;;;;;;8.23;5.65;;;;;;;10.44;49.56;94289.06;5031383;28;20520;-72
2024/02/29 00:26:47;;;;;;;10.45;6.15;;;;;;;10.43;49.84;94286.69;5032344;28;20032;-72
2024/02/29 00:29:13;;;;;;;14.35;7.38;;;;;;;10.46;49.56;94281.56;5031576;28;20045;-73
2024/02/29 00:31:44;;;;;;;9.52;6.00;;;;;;;10.42;49.68;94279.78;5030285;28;20029;-72
2024/02/29 00:34:13;;;;;;;8.00;5.78;;;;;;;10.39;49.60;94281.19;5031634;28;20039;-72
2024/02/29 00:36:40;;;;;;;10.25;6.00;;;;;;;10.31;50.19;94277.34;5031388;28;20175;-72
2024/02/29 00:39:07;;;;;;;8.18;6.18;;;;;;;10.40;49.79;94281.97;5031261;28;20056;-72
2024/02/29 00:41:33;;;;;;;10.40;6.63;;;;;;;10.44;49.79;94283.72;5031442;28;20021;-72
2024/02/29 00:43:58;;;;;;;12.52;5.45;;;;;;;10.42;49.90;94285.88;5031251;28;20120;-72
2024/02/29 00:46:23;;;;;;;10.70;5.50;;;;;;;10.37;49.82;94277.28;5031518;28;20520;-73
2024/02/29 00:48:49;;;;;;;10.77;6.60;;;;;;;10.47;49.24;94282.34;5031608;28;20083;-72
2024/02/29 00:51:14;;;;;;;13.50;7.13;;;;;;;10.39;49.40;94285.72;5031079;28;20041;-72
2024/02/29 00:53:39;;;;;;;9.35;6.53;;;;;;;10.27;49.64;94283.53;5031691;28;20021;-72
2024/02/29 00:56:05;;;;;;;11.45;6.35;;;;;;;10.29;49.75;94292.81;5031060;28;20043;-72
2024/02/29 00:58:30;;;;;;;10.75;6.47;;;;;;;10.23;50.02;94294.00;5030980;28;20038;-72
2024/02/29 01:00:56;;;;;;;12.07;7.40;;;;;;;10.17;49.80;94279.22;5030970;28;20042;-72
2024/02/29 01:03:21;;;;;;;20.13;7.60;;;;;;;10.20;49.90;94289.28;5029988;28;20088;-72
2024/02/29 01:05:47;;;;;;;13.32;8.30;;;;;;;10.08;50.06;94269.59;5031008;28;20026;-72
2024/02/29 01:08:12;;;;;;;12.27;8.93;;;;;;;10.13;50.14;94285.44;5031007;28;20064;-72
2024/02/29 01:10:38;;;;;;;16.88;9.48;;;;;;;10.24;50.08;94290.25;5030635;28;20029;-72
2024/02/29 01:13:04;;;;;;;14.02;7.85;;;;;;;10.11;50.15;94284.97;5031002;28;20055;-72
2024/02/29 01:15:29;;;;;;;14.30;8.10;;;;;;;10.21;50.12;94296.19;5031129;28;20485;-72
2024/02/29 01:17:55;;;;;;;13.98;7.88;;;;;;;10.09;50.38;94269.31;5031086;28;20029;-72
2024/02/29 01:20:20;;;;;;;14.80;7.00;;;;;;;10.23;49.86;94293.19;5031068;28;20025;-72
2024/02/29 01:22:45;;;;;;;9.10;6.18;;;;;;;10.21;50.16;94280.22;5030936;28;20501;-72
2024/02/29 01:25:11;;;;;;;13.05;6.32;;;;;;;10.28;49.91;94287.78;5030954;28;20075;-72
2024/02/29 01:27:36;;;;;;;22.60;8.88;;;;;;;10.22;49.79;94281.78;5030030;28;20033;-72
2024/02/29 01:30:02;;;;;;;10.65;6.32;;;;;;;10.32;49.83;94292.19;5030353;28;20552;-72
2024/02/29 01:32:28;;;;;;;12.55;7.38;;;;;;;10.37;50.05;94295.88;5030734;28;20532;-72
2024/02/29 01:34:53;;;;;;;9.80;5.90;;;;;;;10.34;49.74;94286.59;5030103;28;20048;-72
2024/02/29 01:37:18;;;;;;;10.05;5.70;;;;;;;10.33;49.99;94288.44;5030049;28;20536;-72
2024/02/29 01:39:44;;;;;;;11.50;6.10;;;;;;;10.26;49.93;94282.78;5029793;28;20127;-72
2024/02/29 01:42:13;;;;;;;12.30;6.63;;;;;;;10.21;50.30;94284.75;5030316;28;20397;-72
2024/02/29 01:44:51;;;;;;;12.20;6.28;;;;;;;10.14;50.48;94279.03;5031178;28;20057;-72
2024/02/29 01:47:16;;;;;;;12.80;6.53;;;;;;;10.07;50.26;94268.84;5031170;28;20128;-72
2024/02/29 01:49:43;;;;;;;12.60;6.80;;;;;;;10.09;50.48;94279.94;5030546;28;20152;-72
2024/02/29 01:52:11;;;;;;;8.75;6.70;;;;;;;9.99;50.62;94266.88;5030504;28;20040;-72
2024/02/29 01:54:37;;;;;;;12.77;7.05;;;;;;;10.02;50.88;94276.13;5030327;28;20571;-72
2024/02/29 01:57:02;;;;;;;12.73;6.65;;;;;;;9.97;50.94;94274.38;5030481;28;20030;-72
2024/02/29 01:59:29;;;;;;;9.88;6.50;;;;;;;9.94;50.82;94280.25;5031020;28;20469;-72
2024/02/29 02:01:54;;;;;;;13.40;7.25;;;;;;;9.77;50.81;94253.53;5030332;28;20037;-72
2024/02/29 02:04:20;;;;;;;13.15;7.82;;;;;;;9.89;51.49;94285.66;5030460;28;20124;-72
2024/02/29 02:06:45;;;;;;;13.07;8.05;;;;;;;9.73;51.31;94263.19;5030110;28;20462;-72
2024/02/29 02:09:11;;;;;;;13.27;8.02;;;;;;;9.86;51.36;94281.75;5030388;28;20045;-72
2024/02/29 02:11:36;;;;;;;12.00;8.68;;;;;;;9.89;51.14;94278.50;5031235;28;20100;-72
2024/02/29 02:14:02;;;;;;;12.27;8.60;;;;;;;9.86;51.44;94275.66;5030456;28;20501;-72
2024/02/29 02:16:28;;;;;;;13.55;7.55;;;;;;;9.85;51.24;94271.41;5031056;28;20397;-73
2024/02/29 02:18:53;;;;;;;12.02;8.70;;;;;;;9.90;51.57;94289.91;5033957;28;20033;-72
2024/02/29 02:21:19;;;;;;;13.80;8.80;;;;;;;9.70;51.43;94277.03;5034199;28;20033;-72
2024/02/29 02:23:44;;;;;;;14.75;8.75;;;;;;;9.80;51.47;94287.44;5034603;28;20542;-72
2024/02/29 02:26:10;;;;;;;11.25;7.28;;;;;;;9.81;51.47;94287.16;5033817;28;20509;-72
2024/02/29 02:28:35;;;;;;;12.93;8.07;;;;;;;9.83;51.57;94284.19;5033573;28;20571;-72
2024/02/29 02:31:01;;;;;;;12.30;7.07;;;;;;;9.73;51.27;94285.19;5033912;28;20037;-72
2024/02/29 02:33:26;;;;;;;13.30;9.00;;;;;;;9.59;51.84;94259.72;5033322;28;20515;-71
2024/02/29 02:35:51;;;;;;;15.30;8.75;;;;;;;9.72;51.44;94267.69;5034292;28;20048;-72
2024/02/29 02:38:17;;;;;;;15.43;8.35;;;;;;;9.72;51.30;94288.16;5033283;28;20087;-72
2024/02/29 02:40:42;;;;;;;17.75;11.55;;;;;;;9.57;51.81;94275.16;5033793;28;20032;-72
2024/02/29 02:43:07;;;;;;;18.73;12.35;;;;;;;9.73;51.94;94290.50;5033528;28;20498;-73
2024/02/29 02:45:33;;;;;;;24.42;12.02;;;;;;;9.79;51.22;94278.69;5033340;28;20034;-72
2024/02/29 02:47:58;;;;;;;20.70;13.45;;;;;;;9.59;51.87;94270.34;5033352;28;20026;-71
2024/02/29 02:50:24;;;;;;;18.20;12.07;;;;;;;9.73;51.59;94276.44;5034098;28;20629;-72
2024/02/29 02:52:50;;;;;;;24.15;15.90;;;;;;;9.40;52.33;94263.25;5033581;28;20137;-72
2024/02/29 02:55:15;;;;;;;21.20;14.68;;;;;;;9.41;52.80;94280.75;5033411;28;20140;-73
2024/02/29 02:57:40;;;;;;;26.70;17.88;;;;;;;9.26;53.39;94275.72;5033395;28;20041;-72
2024/02/29 03:00:06;;;;;;;24.88;14.45;;;;;;;9.24;53.57;94272.56;5033301;28;20467;-72
2024/02/29 03:02:33;;;;;;;26.05;14.00;;;;;;;9.41;53.10;94272.00;5033933;28;20469;-72
2024/02/29 03:04:58;;;;;;;23.15;13.63;;;;;;;9.26;53.64;94281.03;5033145;28;20052;-72
2024/02/29 03:07:23;;;;;;;21.35;12.80;;;;;;;9.35;53.20;94270.53;5033127;28;20064;-72
2024/02/29 03:09:49;;;;;;;19.92;12.55;;;;;;;9.23;53.32;94249.78;5032994;28;20481;-72
2024/02/29 03:12:15;;;;;;;19.27;12.07;;;;;;;8.99;53.69;94244.63;5031455;28;20042;-72
2024/02/29 03:14:40;;;;;;;18.23;12.52;;;;;;;9.11;54.26;94262.72;5032140;28;20083;-72
2024/02/29 03:17:06;;;;;;;25.35;11.20;;;;;;;8.97;53.93;94228.19;5032861;28;20437;-72
2024/02/29 03:19:31;;;;;;;15.02;9.77;;;;;;;9.13;54.07;94247.31;5032836;28;20505;-72
2024/02/29 03:21:56;;;;;;;22.52;11.50;;;;;;;8.57;55.32;94264.13;5032756;28;20053;-72
2024/02/29 03:24:22;;;;;;;23.27;12.90;;;;;;;8.74;55.49;94274.22;5033402;28;20041;-72
2024/02/29 03:26:47;;;;;;;20.52;10.18;;;;;;;8.98;54.13;94260.81;5033111;28;20369;-72
2024/02/29 03:29:13;;;;;;;14.85;9.88;;;;;;;9.07;54.09;94271.53;5032355;28;20677;-73
2024/02/29 03:31:42;;;;;;;18.95;9.85;;;;;;;9.04;54.03;94251.69;5032858;28;20076;-72
2024/02/29 03:34:08;;;;;;;21.67;11.75;;;;;;;9.11;53.45;94222.94;5032654;28;20034;-73
2024/02/29 03:36:33;;;;;;;18.75;9.52;;;;;;;9.30;53.30;94254.69;5032272;28;20033;-72
2024/02/29 03:38:58;;;;;;;17.73;9.85;;;;;;;9.34;53.34;94261.75;5032499;28;20081;-72
2024/02/29 03:41:24;;;;;;;18.02;8.88;;;;;;;9.26;53.43;94253.72;5032844;28;20075;-72
2024/02/29 03:43:49;;;;;;;14.60;8.55;;;;;;;9.26;53.22;94251.06;5032424;28;20038;-72
2024/02/29 03:46:14;;;;;;;18.90;9.70;;;;;;;9.26;52.93;94257.16;5032075;28;20045;-72
2024/02/29 03:48:40;;;;;;;15.23;8.63;;;;;;;9.29;53.12;94243.28;5032561;28;20040;-72
2024/02/29 03:51:05;;;;;;;12.40;8.73;;;;;;;9.28;53.09;94241.72;5032567;28;20083;-72
2024/02/29 03:53:30;;;;;;;15.38;8.73;;;;;;;9.31;52.88;94258.91;5032435;28;20492;-72
2024/02/29 03:55:56;;;;;;;13.40;8.95;;;;;;;9.23;53.04;94255.09;5032249;28;20076;-72
2024/02/29 03:58:21;;;;;;;16.90;9.25;;;;;;;8.93;53.11;94223.75;5031893;28;20029;-72
2024/02/29 04:00:48;;;;;;;17.75;10.40;;;;;;;9.27;53.11;94249.97;5031718;28;20042;-72
2024/02/29 04:03:13;;;;;;;16.65;9.52;;;;;;;9.23;53.38;94260.41;5032087;28;20108;-72
2024/02/29 04:05:39;;;;;;;20.02;11.32;;;;;;;9.02;53.60;94244.03;5032422;28;20144;-72
2024/02/29 04:08:10;;;;;;;15.10;9.55;;;;;;;9.12;53.28;94231.69;5032020;28;20049;-72
2024/02/29 04:10:36;;;;;;;19.42;11.00;;;;;;;9.09;53.96;94248.94;5031945;28;20045;-72
2024/02/29 04:13:02;;;;;;;11.32;8.65;;;;;;;9.19;53.57;94248.00;5032189;28;20029;-72
2024/02/29 04:15:27;;;;;;;14.20;10.38;;;;;;;9.09;53.47;94227.72;5031339;28;20577;-72
2024/02/29 04:17:53;;;;;;;18.00;11.10;;;;;;;9.15;53.73;94247.00;5032206;28;20065;-71
2024/02/29 04:20:18;;;;;;;21.60;11.52;;;;;;;9.16;53.78;94248.56;5032224;28;20039;-72
2024/02/29 04:22:44;;;;;;;17.73;11.48;;;;;;;9.08;53.70;94220.06;5031837;28;20513;-72
2024/02/29 04:25:12;;;;;;;21.55;11.65;;;;;;;9.21;53.78;94243.97;5031314;28;20113;-72
2024/02/29 04:27:38;;;;;;;15.80;11.20;;;;;;;9.21;53.71;94251.16;5031841;28;20042;-72
2024/02/29 04:30:05;;;;;;;19.20;12.15;;;;;;;9.22;53.39;94258.81;5031961;28;20075;-72
2024/02/29 04:32:31;;;;;;;21.33;13.95;;;;;;;9.12;54.03;94243.06;5032396;28;20075;-72
2024/02/29 04:34:56;;;;;;;19.13;12.77;;;;;;;8.95;53.98;94224.28;5031839;28;20496;-72
2024/02/29 04:37:22;;;;;;;18.27;12.18;;;;;;;9.00;53.83;94237.41;5031164;28;20113;-72
2024/02/29 04:39:47;;;;;;;19.17;11.88;;;;;;;8.98;54.39;94231.63;5030421;28;20045;-72
2024/02/29 04:42:12;;;;;;;18.80;11.88;;;;;;;9.06;54.12;94236.25;5031549;28;20041;-72
2024/02/29 04:44:38;;;;;;;20.83;13.60;;;;;;;9.07;53.70;94240.50;5032013;28;20037;-72
2024/02/29 04:47:03;;;;;;;19.60;13.07;;;;;;;9.01;53.79;94231.03;5031163;28;20501;-72
2024/02/29 04:49:29;;;;;;;22.42;12.52;;;;;;;9.13;53.58;94244.66;5030271;28;20026;-72
2024/02/29 04:51:54;;;;;;;18.40;13.50;;;;;;;8.86;54.54;94232.09;5031279;28;20690;-72
2024/02/29 04:54:19;;;;;;;22.92;14.35;;;;;;;8.96;54.49;94239.09;5030832;28;20131;-72
2024/02/29 04:56:45;;;;;;;20.23;12.95;;;;;;;8.97;54.37;94240.66;5031654;28;20057;-73
2024/02/29 04:59:10;;;;;;;20.58;12.45;;;;;;;9.03;54.47;94244.81;5031086;28;20515;-72
2024/02/29 05:01:36;;;;;;;22.13;12.23;;;;;;;8.93;54.26;94229.06;5030810;28;20075;-72
2024/02/29 05:04:02;;;;;;;15.93;11.60;;;;;;;9.03;53.94;94242.94;5029747;28;20048;-72
2024/02/29 05:06:28;;;;;;;17.95;11.88;;;;;;;8.93;54.08;94229.06;5030948;28;20055;-72
2024/02/29 05:08:53;;;;;;;20.25;12.43;;;;;;;9.02;53.83;94232.63;5030743;28;20544;-72
2024/02/29 05:11:19;;;;;;;22.27;11.63;;;;;;;9.20;53.80;94242.38;5031214;28;20369;-72
2024/02/29 05:13:44;;;;;;;23.15;12.85;;;;;;;9.02;54.36;94243.22;5031106;28;20064;-72
2024/02/29 05:16:15;;;;;;;21.85;13.50;;;;;;;8.72;54.79;94212.72;5030913;28;20409;-72
2024/02/29 05:18:41;;;;;;;19.80;14.15;;;;;;;8.98;54.33;94239.59;5030769;28;20041;-72
2024/02/29 05:21:06;;;;;;;18.70;13.85;;;;;;;9.03;54.46;94250.13;5030618;28;20033;-72
2024/02/29 05:23:33;;;;;;;24.92;14.82;;;;;;;9.00;54.88;94250.69;5031438;28;20025;-72
2024/02/29 05:25:59;;;;;;;21.92;15.75;;;;;;;8.97;54.89;94240.66;5030653;28;20037;-72
2024/02/29 05:28:25;;;;;;;27.85;16.17;;;;;;;9.11;54.74;94257.41;5030458;28;20405;-72
2024/02/29 05:30:51;;;;;;;24.27;15.70;;;;;;;9.14;54.81;94250.75;5030947;28;20119;-72
2024/02/29 05:33:17;;;;;;;25.20;15.85;;;;;;;9.15;54.32;94263.72;5031079;28;20579;-72
2024/02/29 05:35:42;;;;;;;22.70;15.77;;;;;;;9.17;54.25;94261.56;5030792;28;20101;-72
2024/02/29 05:38:07;;;;;;;26.48;16.65;;;;;;;9.12;54.33;94248.38;5030554;28;20539;-73
2024/02/29 05:40:33;;;;;;;21.17;16.35;;;;;;;9.07;54.32;94245.78;5028810;28;20053;-72
2024/02/29 05:42:58;;;;;;;27.15;17.63;;;;;;;9.20;54.32;94265.50;5029195;28;20547;-72
2024/02/29 05:45:24;;;;;;;26.48;18.25;;;;;;;9.22;54.19;94261.47;5029179;28;20037;-73
2024/02/29 05:47:50;;;;;;;22.98;16.27;;;;;;;9.24;54.37;94280.53;5029991;28;20084;-72
2024/02/29 05:50:16;;;;;;;24.38;16.02;;;;;;;9.17;54.26;94266.88;5029598;28;20048;-73
2024/02/29 05:52:41;;;;;;;25.08;17.33;;;;;;;9.27;54.03;94281.81;5033265;28;20513;-73
2024/02/29 05:55:07;;;;;;;23.65;14.85;;;;;;;9.27;54.05;94277.31;5033069;28;20110;-72
2024/02/29 05:57:32;;;;;;;23.15;14.38;;;;;;;9.36;53.95;94285.38;5032880;28;20044;-72
2024/02/29 06:00:00;;;;;;;25.73;14.75;;;;;;;9.25;54.70;94274.16;5033246;28;20061;-71
2024/02/29 06:02:27;;;;;;;23.15;15.05;;;;;;;9.26;54.73;94281.03;5034303;28;20492;-73
2024/02/29 06:04:52;;;;;;;28.80;15.90;;;;;;;9.17;55.05;94261.56;5033877;28;20041;-73
2024/02/29 06:07:17;;;;;;;25.05;15.05;;;;;;;9.31;54.77;94280.94;5034219;28;20574;-73
2024/02/29 06:09:43;;;;;;;22.92;15.55;;;;;;;9.33;54.91;94281.44;5034263;28;20026;-73
2024/02/29 06:12:08;;;;;;;26.98;16.65;;;;;;;9.28;54.84;94265.63;5033738;28;20030;-73
2024/02/29 06:14:34;;;;;;;25.75;15.25;;;;;;;9.45;54.69;94271.13;5033094;28;20111;-73
2024/02/29 06:17:00;;;;;;;28.67;16.25;;;;;;;9.44;54.94;94276.72;5034191;28;20026;-72
2024/02/29 06:19:25;;;;;;;21.20;15.07;;;;;;;9.54;54.67;94273.09;5034046;28;20044;-72
2024/02/29 06:21:51;;;;;;;27.92;17.02;;;;;;;9.60;54.55;94270.03;5033825;28;20060;-74
2024/02/29 06:24:18;;;;;;;30.67;17.20;;;;;;;9.58;55.35;94263.47;5033646;28;20029;-74
2024/02/29 06:26:47;;;;;;;29.83;17.80;;;;;;;9.63;55.15;94269.47;5033676;28;20357;-73
2024/02/29 06:29:13;;;;;;;26.92;16.40;;;;;;;9.53;55.15;94268.88;5033852;28;20091;-73
2024/02/29 06:31:39;;;;;;;23.65;14.43;;;;;;;9.56;55.21;94258.44;5033942;28;20030;-73
2024/02/29 06:34:05;;;;;;;29.48;15.27;;;;;;;9.59;54.85;94254.41;5033947;28;20519;-73
2024/02/29 06:36:30;;;;;;;21.58;14.80;;;;;;;9.46;54.76;94261.28;5033857;28;20029;-73
2024/02/29 06:38:55;;;;;;;34.42;17.35;;;;;;;9.49;55.41;94262.59;5033361;28;20401;-72
2024/02/29 06:41:21;;;;;;;28.25;17.17;;;;;;;9.51;55.08;94271.81;5033419;28;20028;-73
2024/02/29 06:43:46;;;;;;;28.02;16.90;;;;;;;9.47;54.54;94256.78;5033209;28;20120;-73
2024/02/29 06:46:11;;;;;;;29.60;16.13;;;;;;;9.65;54.58;94277.13;5033336;28;20489;-72
2024/02/29 06:48:37;;;;;;;27.50;17.15;;;;;;;9.79;53.97;94277.91;5033535;28;20451;-72
2024/02/29 06:51:02;;;;;;;33.17;16.48;;;;;;;9.77;53.81;94264.94;5033757;28;20025;-72
2024/02/29 06:53:31;;;;;;;32.88;16.70;;;;;;;9.74;53.89;94276.13;5033852;28;20107;-72
2024/02/29 06:55:57;;;;;;;52.40;19.58;;;;;;;9.69;54.29;94278.09;5033284;28;20037;-72
2024/02/29 06:58:22;;;;;;;35.15;17.35;;;;;;;9.52;54.95;94276.06;5031945;28;20493;-73
2024/02/29 07:00:48;;;;;;;37.05;18.42;;;;;;;9.41;55.10;94277.31;5032854;28;20167;-73
2024/02/29 07:03:13;;;;;;;37.13;17.42;;;;;;;9.37;55.74;94277.13;5030683;28;20253;-72
2024/02/29 07:05:39;;;;;;;38.83;19.15;;;;;;;9.50;54.87;94264.94;5029668;28;20021;-72
2024/02/29 07:08:05;;;;;;;33.63;17.90;;;;;;;9.59;54.92;94284.41;5030229;28;20033;-73
2024/02/29 07:10:31;;;;;;;40.90;19.58;;;;;;;9.66;54.67;94289.34;5030246;28;20096;-73
2024/02/29 07:12:57;;;;;;;29.42;18.13;;;;;;;9.65;54.66;94271.81;5030027;28;20110;-73
2024/02/29 07:15:22;;;;;;;38.78;20.23;;;;;;;9.93;54.39;94281.34;5030340;28;20044;-72
2024/02/29 07:17:48;;;;;;;38.47;20.35;;;;;;;9.81;54.54;94270.44;5031766;28;20025;-73
2024/02/29 07:20:14;;;;;;;39.63;19.45;;;;;;;9.86;54.33;94271.13;5031300;28;20041;-72
2024/02/29 07:22:43;;;;;;;32.88;20.88;;;;;;;9.86;54.60;94273.78;5032321;28;20034;-72
2024/02/29 07:25:09;;;;;;;37.58;18.52;;;;;;;9.69;54.49;94267.47;5032106;28;20056;-72
2024/02/29 07:27:38;;;;;;;31.58;18.65;;;;;;;9.55;55.23;94256.06;5032426;28;20497;-73
2024/02/29 07:30:06;;;;;;;32.00;18.48;;;;;;;9.75;54.75;94266.31;5032587;28;20079;-72
2024/02/29 07:32:34;;;;;;;35.25;18.90;;;;;;;9.91;54.52;94256.16;5032709;28;20228;-73
2024/02/29 07:34:59;;;;;;;38.20;18.50;;;;;;;10.02;54.18;94252.22;5032139;28;20537;-73
2024/02/29 07:37:24;;;;;;;33.65;17.90;;;;;;;10.15;53.78;94260.16;5031989;28;20120;-73
2024/02/29 07:39:50;;;;;;;39.13;20.15;;;;;;;10.20;53.78;94260.03;5031933;28;20041;-73
2024/02/29 07:42:15;;;;;;;39.50;18.90;;;;;;;9.87;53.99;94248.78;5032248;28;20041;-73
2024/02/29 07:44:40;;;;;;;40.35;20.45;;;;;;;9.80;54.39;94253.72;5032508;28;20049;-73
2024/02/29 07:47:06;;;;;;;31.05;19.77;;;;;;;9.90;53.88;94263.34;5032146;28;20548;-73
2024/02/29 07:49:34;;;;;;;31.17;19.48;;;;;;;9.92;54.00;94255.88;5031670;28;20501;-73
2024/02/29 07:51:59;;;;;;;39.42;19.95;;;;;;;9.72;54.17;94267.69;5031192;28;20053;-73
2024/02/29 07:54:25;;;;;;;34.42;19.98;;;;;;;9.52;55.01;94238.88;5030169;28;20057;-73
2024/02/29 07:56:50;;;;;;;30.55;18.48;;;;;;;9.67;55.03;94261.69;5031600;28;20109;-73
2024/02/29 07:59:16;;;;;;;33.25;20.48;;;;;;;9.59;54.56;94225.19;5031267;28;20536;-73
2024/02/29 08:01:41;;;;;;;35.13;19.70;;;;;;;9.47;54.73;94228.34;5031216;28;20038;-73
2024/02/29 08:04:06;;;;;;;38.08;20.05;;;;;;;9.46;55.52;94253.31;5031292;28;20565;-73
2024/02/29 08:06:32;;;;;;;35.63;19.50;;;;;;;9.59;55.49;94257.06;5030947;28;20041;-73
2024/02/29 08:08:57;;;;;;;30.95;18.27;;;;;;;9.37;55.85;94239.97;5030807;28;20108;-71
2024/02/29 08:11:25;;;;;;;31.98;20.05;;;;;;;8.71;58.01;94223.59;5032021;28;20382;-73
2024/02/29 08:13:51;;;;;;;35.75;20.08;;;;;;;8.22;60.22;94235.50;5031027;28;20030;-73
2024/02/29 08:16:16;;;;;;;37.38;22.27;;;;;;;8.29;61.37;94243.88;5031192;28;20041;-72
2024/02/29 08:18:42;;;;;;;34.35;19.90;;;;;;;8.17;62.05;94232.16;5030978;28;20389;-72
2024/02/29 08:21:07;;;;;;;35.38;21.13;;;;;;;8.09;62.43;94204.44;5030588;28;20530;-72
2024/02/29 08:23:33;;;;;;;34.08;21.55;;;;;;;8.81;61.00;94223.44;5031250;28;20469;-73
2024/02/29 08:25:58;;;;;;;45.42;23.52;;;;;;;8.76;60.70;94229.59;5030322;28;20037;-72
2024/02/29 08:28:24;;;;;;;39.38;24.10;;;;;;;8.70;61.56;94224.69;5030568;28;20528;-73
2024/02/29 08:30:49;;;;;;;34.10;20.58;;;;;;;8.41;62.69;94223.00;5030818;28;20034;-72
2024/02/29 08:33:15;;;;;;;42.85;22.85;;;;;;;7.94;63.98;94199.34;5030671;28;20038;-72
2024/02/29 08:35:40;;;;;;;41.30;23.35;;;;;;;7.94;64.87;94212.59;5030987;28;20433;-73
2024/02/29 08:38:06;;;;;;;42.58;22.58;;;;;;;8.08;64.99;94208.16;5030372;28;20524;-73
2024/02/29 08:40:31;;;;;;;40.65;22.15;;;;;;;8.14;64.60;94201.72;5030303;28;20132;-72
2024/02/29 08:42:58;;;;;;;38.05;22.88;;;;;;;8.15;64.99;94208.59;5030563;28;20483;-73
2024/02/29 08:45:23;;;;;;;51.60;25.25;;;;;;;7.89;66.28;94204.72;5030100;28;20045;-73
2024/02/29 08:47:50;;;;;;;47.47;26.33;;;;;;;7.86;66.21;94184.13;5030838;28;20522;-73
2024/02/29 08:50:15;;;;;;;44.15;24.25;;;;;;;7.79;66.15;94205.66;5030533;28;20033;-73
2024/02/29 08:52:41;;;;;;;51.33;24.27;;;;;;;7.73;67.05;94199.63;5030183;28;20448;-73
2024/02/29 08:55:08;;;;;;;42.67;24.02;;;;;;;7.70;67.67;94207.34;5030586;28;20034;-71
2024/02/29 08:57:35;;;;;;;43.55;23.70;;;;;;;7.62;67.68;94208.78;5030463;28;20103;-72
2024/02/29 09:00:00;;;;;;;41.30;23.42;;;;;;;7.52;68.08;94190.38;5031192;28;20030;-72
2024/02/29 09:02:26;;;;;;;52.33;25.85;;;;;;;7.39;68.64;94201.63;5030932;28;20484;-72
2024/02/29 09:04:51;;;;;;;46.55;23.83;;;;;;;7.70;68.34;94202.03;5030736;28;20053;-72
2024/02/29 09:07:16;;;;;;;40.42;22.60;;;;;;;8.13;66.82;94198.28;5031275;28;20037;-72
2024/02/29 09:09:42;;;;;;;42.15;21.85;;;;;;;8.29;66.08;94196.19;5030750;28;20492;-72
2024/02/29 09:12:12;;;;;;;35.50;20.92;;;;;;;8.67;63.99;94204.06;5030756;28;20069;-72
2024/02/29 09:14:37;;;;;;;34.67;21.92;;;;;;;8.81;63.61;94205.66;5031296;28;20179;-72
2024/02/29 09:17:04;;;;;;;36.72;19.85;;;;;;;8.88;62.17;94192.81;5030428;28;20545;-72
2024/02/29 09:19:29;;;;;;;36.80;18.63;;;;;;;9.50;60.82;94211.81;5030235;28;20030;-72
2024/02/29 09:21:55;;;;;;;31.33;17.92;;;;;;;9.81;59.08;94201.38;5030423;28;20045;-73
2024/02/29 09:24:21;;;;;;;27.83;18.45;;;;;;;9.87;57.53;94216.13;5030288;28;20048;-73
2024/02/29 09:26:46;;;;;;;30.02;18.25;;;;;;;9.96;58.08;94219.66;5034096;28;20021;-73
2024/02/29 09:29:11;;;;;;;32.95;18.23;;;;;;;10.23;57.05;94235.50;5034758;28;20037;-73
2024/02/29 09:31:37;;;;;;;31.95;18.52;;;;;;;10.43;56.44;94236.16;5034556;28;20025;-72
2024/02/29 09:34:02;;;;;;;45.22;23.60;;;;;;;10.25;55.80;94198.00;5034292;28;20032;-74
2024/02/29 09:36:31;;;;;;;46.05;24.85;;;;;;;10.65;55.78;94238.84;5034150;28;20037;-73
2024/02/29 09:38:56;;;;;;;48.55;27.95;;;;;;;10.70;54.64;94236.84;5034047;28;20479;-72
2024/02/29 09:41:21;;;;;;;53.88;26.45;;;;;;;10.67;54.83;94220.69;5034348;28;20117;-73
2024/02/29 09:43:47;;;;;;;41.63;25.25;;;;;;;10.70;54.89;94241.38;5034146;28;20571;-73
2024/02/29 09:46:12;;;;;;;53.03;25.92;;;;;;;11.03;54.07;94241.88;5034044;28;20037;-73
2024/02/29 09:48:39;;;;;;;45.60;24.50;;;;;;;10.94;54.07;94233.06;5033315;28;20668;-73
2024/02/29 09:51:05;;;;;;;42.35;24.00;;;;;;;10.32;54.72;94204.47;5033636;28;20076;-72
2024/02/29 09:53:33;;;;;;;44.85;24.13;;;;;;;10.55;55.38;94231.09;5034304;28;20013;-73
2024/02/29 09:55:59;;;;;;;38.83;23.80;;;;;;;10.92;54.34;94235.25;5033529;28;20034;-73
2024/02/29 09:58:26;;;;;;;42.90;22.92;;;;;;;10.96;54.36;94231.66;5034011;28;20056;-73
2024/02/29 10:00:52;;;;;;;38.78;21.83;;;;;;;11.17;53.77;94231.94;5034079;28;20030;-73
2024/02/29 10:03:17;;;;;;;36.17;19.52;;;;;;;11.09;53.34;94230.03;5033468;28;20693;-73
2024/02/29 10:05:46;;;;;;;32.72;17.48;;;;;;;10.75;54.26;94214.66;5033705;28;20013;-73
2024/02/29 10:08:12;;;;;;;33.67;20.45;;;;;;;10.15;54.96;94206.19;5033440;28;20056;-73
2024/02/29 10:10:38;;;;;;;33.42;18.52;;;;;;;9.91;55.98;94224.28;5034150;28;20433;-73
2024/02/29 10:13:06;;;;;;;34.35;18.35;;;;;;;10.23;55.73;94230.19;5034076;28;20037;-73
2024/02/29 10:15:31;;;;;;;31.52;17.67;;;;;;;10.13;56.59;94229.63;5033773;28;20034;-73
2024/02/29 10:17:57;;;;;;;27.92;18.65;;;;;;;10.72;55.29;94216.03;5033983;28;20544;-72
2024/02/29 10:20:24;;;;;;;43.50;19.52;;;;;;;10.83;54.51;94187.31;5033739;28;20481;-73
2024/02/29 10:22:51;;;;;;;37.90;17.92;;;;;;;10.84;54.15;94207.50;5033355;28;20440;-73
2024/02/29 10:25:17;;;;;;;30.55;16.83;;;;;;;10.12;55.35;94214.78;5033306;28;20042;-73
2024/02/29 10:27:43;;;;;;;32.45;18.60;;;;;;;9.95;56.47;94215.41;5033529;28;20055;-72
2024/02/29 10:30:18;;;;;;;28.20;18.65;;;;;;;9.83;56.52;94223.09;5033648;28;20640;-73
2024/02/29 10:32:45;;;;;;;26.13;17.08;;;;;;;9.81;56.90;94201.38;5034332;28;20027;-73
2024/02/29 10:35:21;;;;;;;29.48;17.48;;;;;;;10.31;55.28;94204.78;5033584;28;20048;-73
2024/02/29 10:37:48;;;;;;;31.25;18.02;;;;;;;10.74;54.76;94207.75;5032177;28;20029;-73
2024/02/29 10:40:14;;;;;;;27.15;15.85;;;;;;;11.11;54.19;94209.97;5033068;28;20417;-72
2024/02/29 10:42:41;;;;;;;34.65;17.30;;;;;;;11.40;53.57;94203.34;5033207;28;20041;-73
2024/02/29 10:45:14;;;;;;;36.80;17.13;;;;;;;11.59;52.51;94195.94;5033625;28;20060;-72
2024/02/29 10:47:58;;;;;;;30.92;15.88;;;;;;;11.82;52.52;94189.41;5033625;28;20021;-73
2024/02/29 10:50:25;;;;;;;25.13;16.45;;;;;;;11.39;52.54;94188.50;5033208;28;20038;-73
2024/02/29 10:53:03;;;;;;;25.00;16.48;;;;;;;11.36;52.63;94189.09;5033044;28;20037;-73
2024/02/29 10:55:33;;;;;;;31.88;19.05;;;;;;;11.15;52.87;94179.00;5033025;28;20025;-73
2024/02/29 10:58:12;;;;;;;35.55;17.08;;;;;;;11.30;52.99;94166.34;5033241;28;20037;-73
2024/02/29 11:00:38;;;;;;;25.30;16.00;;;;;;;11.27;52.90;94182.97;5032782;28;20046;-72
2024/02/29 11:03:04;;;;;;;27.10;16.25;;;;;;;11.30;53.22;94177.00;5033179;28;20097;-72
2024/02/29 11:05:30;;;;;;;21.83;13.77;;;;;;;11.14;52.03;94182.78;5033351;28;20018;-73
2024/02/29 11:07:55;;;;;;;22.05;14.93;;;;;;;11.56;52.13;94180.56;5032648;28;20033;-72
2024/02/29 11:10:22;;;;;;;24.00;15.35;;;;;;;11.18;52.34;94180.28;5032559;28;20030;-73
2024/02/29 11:12:48;;;;;;;26.05;16.13;;;;;;;10.56;53.37;94137.69;5032821;28;20115;-73
2024/02/29 11:15:13;;;;;;;25.88;15.30;;;;;;;10.99;54.64;94167.19;5032459;28;20116;-73
2024/02/29 11:17:41;;;;;;;22.95;15.93;;;;;;;10.84;52.92;94164.94;5032944;28;20462;-73